Weather at Guanare Airport

Public forecast

Using degrees Celsius for public forecast. Weather courtesy of forecast.io.

Current aviation weather report (METAR) for Guanare Airport

Retrieved 2020/09/18 13:02 UTC (0 seconds ago):

SVGU 181302Z AUTO 01001KT NCD 25/23 Q1013

Closest aviation forecast (TAF) to Guanare Airport

Closest forecast is Barquisimeto International Airport, 65.4 nm (121.0 km) NNE. Retrieved 2020/09/18 12:47 UTC (13 minutes ago):

TAF SVBM 181234Z 1812/1912 07008KT 8000 BR FEW013 BKN070 TX33/1818Z TN22/1908Z BECMG 1814/1818 10010KT 7000 VCTSDZ FEW013CB BKN070